createdAt,value
2018-01-10T00:00:04.868Z,932.9
2018-01-10T00:01:13.765Z,932.9
2018-01-10T00:02:21.298Z,932.8
2018-01-10T00:03:29.309Z,932.9
2018-01-10T00:04:34.205Z,932.9
2018-01-10T00:05:40.372Z,932.9
2018-01-10T00:06:53.537Z,932.9
2018-01-10T00:08:01.065Z,932.9
2018-01-10T00:09:07.751Z,932.9
2018-01-10T00:10:15.457Z,932.9
2018-01-10T00:11:22.439Z,932.8
2018-01-10T00:12:32.013Z,932.8
2018-01-10T00:13:36.574Z,932.9
2018-01-10T00:14:41.840Z,932.9
2018-01-10T00:15:50.516Z,932.9
2018-01-10T00:17:00.278Z,932.8
2018-01-10T00:18:12.067Z,932.8
2018-01-10T00:19:20.905Z,932.9
2018-01-10T00:20:28.042Z,932.8
2018-01-10T00:21:38.849Z,932.9
2018-01-10T00:22:45.730Z,932.9
2018-01-10T00:23:51.130Z,932.9
2018-01-10T00:25:00.215Z,932.9
2018-01-10T00:26:07.672Z,933
2018-01-10T00:27:17.684Z,932.9
2018-01-10T00:28:25.601Z,932.9
2018-01-10T00:29:47.365Z,932.9
2018-01-10T00:30:50.762Z,932.9
2018-01-10T00:31:56.292Z,932.9
2018-01-10T00:33:01.978Z,932.9
2018-01-10T00:34:10.104Z,932.9
2018-01-10T00:35:18.406Z,932.9
2018-01-10T00:36:26.910Z,932.9
2018-01-10T00:37:34.239Z,932.9
2018-01-10T00:38:43.281Z,932.9
2018-01-10T00:39:49.170Z,933
2018-01-10T00:41:11.297Z,933
2018-01-10T00:42:23.735Z,932.9
2018-01-10T00:43:30.427Z,933
2018-01-10T00:44:38.162Z,933
2018-01-10T00:45:45.570Z,932.9
2018-01-10T00:46:50.320Z,933
2018-01-10T00:47:56.085Z,932.9
2018-01-10T00:49:01.135Z,932.9
2018-01-10T00:50:11.455Z,932.9
2018-01-10T00:51:14.800Z,932.9
2018-01-10T00:52:59.289Z,932.8
2018-01-10T00:54:05.769Z,932.8
2018-01-10T00:55:12.008Z,932.8
2018-01-10T00:56:16.971Z,932.9
2018-01-10T00:57:26.744Z,932.8
2018-01-10T00:58:32.931Z,933
2018-01-10T00:59:40.646Z,932.8
2018-01-10T01:00:48.195Z,932.8
2018-01-10T01:01:52.960Z,932.9
2018-01-10T01:03:00.161Z,932.9
2018-01-10T01:04:41.013Z,932.9
2018-01-10T01:05:46.885Z,932.8
2018-01-10T01:06:52.217Z,932.7
2018-01-10T01:07:56.840Z,932.8
2018-01-10T01:09:02.129Z,932.9
2018-01-10T01:10:06.827Z,932.8
2018-01-10T01:11:10.757Z,932.8
2018-01-10T01:12:15.458Z,932.9
2018-01-10T01:13:21.029Z,932.9
2018-01-10T01:14:24.625Z,932.9
2018-01-10T01:15:39.262Z,932.9
2018-01-10T01:16:45.460Z,932.9
2018-01-10T01:17:49.959Z,932.9
2018-01-10T01:18:53.774Z,932.2
2018-01-10T01:19:58.514Z,933
2018-01-10T01:21:01.828Z,932.9
2018-01-10T01:22:06.460Z,928.9
2018-01-10T01:23:09.333Z,932.8
2018-01-10T01:24:14.106Z,932.6
2018-01-10T01:25:19.791Z,932.8
2018-01-10T01:27:00.322Z,932.8
2018-01-10T01:28:05.024Z,932.8
2018-01-10T01:29:08.893Z,932.8
2018-01-10T01:30:12.727Z,932.8
2018-01-10T01:31:17.968Z,932.8
2018-01-10T01:32:21.395Z,932.7
2018-01-10T01:33:26.713Z,932.6
2018-01-10T01:34:30.936Z,932.8
2018-01-10T01:35:35.694Z,932.7
2018-01-10T01:36:43.284Z,932.8
2018-01-10T01:38:27.232Z,932.8
2018-01-10T01:39:34.279Z,932.7
2018-01-10T01:40:41.957Z,932.7
2018-01-10T01:41:46.250Z,932.7
2018-01-10T01:42:49.734Z,932.7
2018-01-10T01:43:53.905Z,928.7
2018-01-10T01:44:59.953Z,932.7
2018-01-10T01:46:03.176Z,932.7
2018-01-10T01:47:06.659Z,932.6
2018-01-10T01:48:11.990Z,932.6
2018-01-10T01:49:22.018Z,932.7
2018-01-10T01:50:25.804Z,932.6
2018-01-10T01:51:31.183Z,932.6
2018-01-10T01:52:34.629Z,932.5
2018-01-10T01:53:39.352Z,932.6
2018-01-10T01:54:45.828Z,928.5
2018-01-10T01:55:52.478Z,932.6
2018-01-10T01:56:57.037Z,928.5
2018-01-10T01:58:03.222Z,932.6
2018-01-10T01:59:10.529Z,932.6
2018-01-10T02:00:20.748Z,932.5
2018-01-10T02:01:26.421Z,932.5
2018-01-10T02:02:31.605Z,932.5
2018-01-10T02:03:36.331Z,932.5
2018-01-10T02:04:43.752Z,932.5
2018-01-10T02:05:49.150Z,932.5
2018-01-10T02:06:54.465Z,928.5
2018-01-10T02:08:00.206Z,932.5
2018-01-10T02:09:04.780Z,932.5
2018-01-10T02:10:10.363Z,932.4
2018-01-10T02:11:50.814Z,928.3
2018-01-10T02:12:55.170Z,932.3
2018-01-10T02:13:58.566Z,932.4
2018-01-10T02:15:01.815Z,932.3
2018-01-10T02:16:04.778Z,932.3
2018-01-10T02:17:07.985Z,932.4
2018-01-10T02:18:12.232Z,932.5
2018-01-10T02:19:17.526Z,932.4
2018-01-10T02:20:21.780Z,932.4
2018-01-10T02:21:24.928Z,932.3
2018-01-10T02:22:31.931Z,932.4
2018-01-10T02:23:35.752Z,932.3
2018-01-10T02:24:38.926Z,932.3
2018-01-10T02:25:42.469Z,932.4
2018-01-10T02:26:46.747Z,932.3
2018-01-10T02:27:51.340Z,928.3
2018-01-10T02:28:55.234Z,932.3
2018-01-10T02:29:59.541Z,932.3
2018-01-10T02:31:04.437Z,932.3
2018-01-10T02:32:08.456Z,928.2
2018-01-10T02:33:15.460Z,932.3
2018-01-10T02:34:20.643Z,932.3
2018-01-10T02:35:24.608Z,932.3
2018-01-10T02:36:28.018Z,932.3
2018-01-10T02:37:31.276Z,932.3
2018-01-10T02:38:35.068Z,932.3
2018-01-10T02:39:39.195Z,932.3
2018-01-10T02:40:42.602Z,932.3
2018-01-10T02:41:46.513Z,932.3
2018-01-10T02:42:50.650Z,932.2
2018-01-10T02:43:58.361Z,932.2
2018-01-10T02:45:07.832Z,932.2
2018-01-10T02:46:11.516Z,932.2
2018-01-10T02:47:16.297Z,932.1
2018-01-10T02:48:20.748Z,932.2
2018-01-10T02:49:25.870Z,932.2
2018-01-10T02:50:29.900Z,928.2
2018-01-10T02:51:34.733Z,932.3
2018-01-10T02:52:39.092Z,932.2
2018-01-10T02:53:43.134Z,932.2
2018-01-10T02:54:52.999Z,932.3
2018-01-10T02:55:59.982Z,932.3
2018-01-10T02:57:03.830Z,932.2
2018-01-10T02:58:08.289Z,932.2
2018-01-10T02:59:14.292Z,932.3
2018-01-10T03:00:22.651Z,932.3
2018-01-10T03:01:27.226Z,932.2
2018-01-10T03:02:30.959Z,932.2
2018-01-10T03:03:38.776Z,932.2
2018-01-10T03:04:43.226Z,932.2
2018-01-10T03:05:52.235Z,932.2
2018-01-10T03:06:56.679Z,932.2
2018-01-10T03:08:02.736Z,932.2
2018-01-10T03:09:07.803Z,932.2
2018-01-10T03:10:11.328Z,932.3
2018-01-10T03:11:14.344Z,932.2
2018-01-10T03:12:19.124Z,932.2
2018-01-10T03:13:29.107Z,932.1
2018-01-10T03:14:32.911Z,932.1
2018-01-10T03:15:36.957Z,932
2018-01-10T03:16:47.260Z,932.1
2018-01-10T03:17:51.303Z,932
2018-01-10T03:18:58.392Z,932.2
2018-01-10T03:20:03.630Z,931.9
2018-01-10T03:21:08.236Z,932.1
2018-01-10T03:22:13.468Z,928
2018-01-10T03:23:18.384Z,932.1
2018-01-10T03:24:23.066Z,932
2018-01-10T03:25:28.039Z,932.2
2018-01-10T03:26:31.311Z,931.2
2018-01-10T03:27:38.743Z,932
2018-01-10T03:28:42.155Z,932
2018-01-10T03:29:47.227Z,932
2018-01-10T03:30:52.726Z,932
2018-01-10T03:31:57.395Z,931.6
2018-01-10T03:33:01.789Z,931.9
2018-01-10T03:34:08.558Z,932
2018-01-10T03:35:14.849Z,932
2018-01-10T03:36:20.426Z,932
2018-01-10T03:37:25.428Z,932
2018-01-10T03:38:42.487Z,932
2018-01-10T03:39:46.358Z,932
2018-01-10T03:40:52.275Z,932
2018-01-10T03:41:56.796Z,932
2018-01-10T03:43:03.946Z,932
2018-01-10T03:44:07.924Z,932
2018-01-10T03:45:12.024Z,932
2018-01-10T03:46:20.845Z,931.9
2018-01-10T03:47:23.865Z,932
2018-01-10T03:48:31.151Z,932
2018-01-10T03:49:41.606Z,932
2018-01-10T03:50:44.943Z,932
2018-01-10T03:51:48.406Z,932
2018-01-10T03:52:51.746Z,932
2018-01-10T03:53:55.208Z,932
2018-01-10T03:54:58.681Z,932
2018-01-10T03:56:04.131Z,931.9
2018-01-10T03:57:07.803Z,931.9
2018-01-10T03:58:11.112Z,932
2018-01-10T03:59:14.883Z,931.9
2018-01-10T04:01:00.979Z,931.9
2018-01-10T04:02:05.804Z,931.9
2018-01-10T04:03:09.836Z,931.9
2018-01-10T04:04:13.370Z,932
2018-01-10T04:05:19.622Z,931.9
2018-01-10T04:06:24.305Z,931.8
2018-01-10T04:07:31.032Z,931.8
2018-01-10T04:08:35.244Z,931.9
2018-01-10T04:09:40.475Z,931.9
2018-01-10T04:10:45.692Z,931.5
2018-01-10T04:11:58.005Z,931.9
2018-01-10T04:13:03.987Z,931.9
2018-01-10T04:14:09.221Z,927.8
2018-01-10T04:15:14.082Z,931.9
2018-01-10T04:16:22.394Z,932
2018-01-10T04:17:26.955Z,932
2018-01-10T04:18:31.545Z,931.9
2018-01-10T04:19:38.065Z,931.9
2018-01-10T04:20:43.021Z,931.9
2018-01-10T04:22:10.605Z,931.9
2018-01-10T04:26:46.726Z,931.8
2018-01-10T04:28:00.764Z,931.8
2018-01-10T04:29:07.029Z,931.9
2018-01-10T04:30:10.936Z,931.9
2018-01-10T04:31:15.586Z,931.8
2018-01-10T04:32:20.436Z,931.8
2018-01-10T04:33:24.293Z,931.8
2018-01-10T04:34:28.467Z,931.9
2018-01-10T04:35:33.637Z,931.9
2018-01-10T04:36:38.194Z,931.9
2018-01-10T04:37:45.177Z,932
2018-01-10T04:38:49.152Z,931.9
2018-01-10T04:39:54.332Z,931.9
2018-01-10T04:40:59.435Z,932
2018-01-10T04:42:04.254Z,932
2018-01-10T04:43:07.696Z,932
2018-01-10T04:44:11.744Z,931.9
2018-01-10T04:45:16.889Z,932
2018-01-10T04:46:23.346Z,932
2018-01-10T04:47:27.371Z,932
2018-01-10T04:48:34.205Z,932
2018-01-10T04:49:37.420Z,931.9
2018-01-10T04:50:42.660Z,931.9
2018-01-10T04:51:46.156Z,932
2018-01-10T04:52:50.072Z,932
2018-01-10T04:53:54.074Z,932
2018-01-10T04:54:58.602Z,931.9
2018-01-10T04:56:02.902Z,931.9
2018-01-10T04:57:06.925Z,931.9
2018-01-10T04:58:10.106Z,932
2018-01-10T04:59:18.320Z,931.9
2018-01-10T05:00:22.240Z,932
2018-01-10T05:01:26.273Z,931.9
2018-01-10T05:02:32.424Z,931.9
2018-01-10T05:03:35.681Z,932
2018-01-10T05:04:39.927Z,931.9
2018-01-10T05:05:44.413Z,931.9
2018-01-10T05:06:47.792Z,931.9
2018-01-10T05:07:52.596Z,931.9
2018-01-10T05:08:56.847Z,931.8
2018-01-10T05:10:06.524Z,931.9
2018-01-10T05:11:11.937Z,931.7
2018-01-10T05:12:15.527Z,932
2018-01-10T05:13:20.781Z,931.9
2018-01-10T05:14:24.814Z,927.6
2018-01-10T05:15:30.141Z,931.9
2018-01-10T05:16:35.445Z,932
2018-01-10T05:17:39.470Z,931.9
2018-01-10T05:18:44.540Z,931.9
2018-01-10T05:19:48.031Z,931.8
2018-01-10T05:20:56.138Z,931.8
2018-01-10T05:22:01.722Z,931.9
2018-01-10T05:23:05.233Z,931.9
2018-01-10T05:24:09.233Z,931.9
2018-01-10T05:25:12.598Z,931.8
2018-01-10T05:26:17.236Z,931.9
2018-01-10T05:27:20.887Z,931.9
2018-01-10T05:28:25.137Z,932
2018-01-10T05:29:28.563Z,932
2018-01-10T05:30:32.313Z,931.9
2018-01-10T05:31:40.123Z,931.9
2018-01-10T05:32:44.097Z,931.8
2018-01-10T05:33:48.632Z,931.8
2018-01-10T05:34:52.481Z,931.8
2018-01-10T05:35:55.855Z,931.9
2018-01-10T05:37:13.106Z,931.9
2018-01-10T05:38:18.467Z,931.8
2018-01-10T05:39:22.759Z,931.9
2018-01-10T05:40:26.292Z,931.8
2018-01-10T05:41:31.623Z,931.8
2018-01-10T05:42:38.256Z,931.8
2018-01-10T05:43:42.284Z,931.8
2018-01-10T05:44:49.371Z,931.8
2018-01-10T05:45:53.438Z,931.9
2018-01-10T05:46:56.874Z,931.8
2018-01-10T05:48:00.824Z,931.8
2018-01-10T05:49:05.562Z,931.8
2018-01-10T05:50:09.581Z,931.9
2018-01-10T05:51:13.043Z,931.8
2018-01-10T05:52:17.267Z,931.7
2018-01-10T05:53:57.240Z,931.8
2018-01-10T05:55:03.964Z,931.8
2018-01-10T05:56:08.886Z,931.8
2018-01-10T05:57:12.317Z,931.8
2018-01-10T05:58:16.478Z,931.7
2018-01-10T05:59:21.816Z,931.8
2018-01-10T06:00:26.268Z,931.8
2018-01-10T06:01:33.156Z,931.8
2018-01-10T06:02:38.172Z,931.8
2018-01-10T06:03:44.571Z,931.8
2018-01-10T06:04:51.898Z,931.7
2018-01-10T06:05:56.196Z,931.8
2018-01-10T06:07:03.913Z,931.8
2018-01-10T06:08:07.856Z,931.9
2018-01-10T06:09:13.279Z,931.7
2018-01-10T06:10:17.942Z,932
2018-01-10T06:11:23.299Z,931.8
2018-01-10T06:12:27.948Z,931.8
2018-01-10T06:13:32.472Z,931.8
2018-01-10T06:14:38.003Z,931.9
2018-01-10T06:16:19.125Z,931.8
2018-01-10T06:17:22.786Z,931.8
2018-01-10T06:18:26.707Z,931.8
2018-01-10T06:19:31.480Z,931.8
2018-01-10T06:20:36.507Z,931.8
2018-01-10T06:21:41.579Z,931.8
2018-01-10T06:22:46.211Z,931.8
2018-01-10T06:23:50.967Z,931.8
2018-01-10T06:24:59.321Z,931.8
2018-01-10T06:26:09.501Z,931.8
2018-01-10T06:27:24.807Z,931.8
2018-01-10T06:28:28.811Z,931.8
2018-01-10T06:29:33.515Z,931.7
2018-01-10T06:30:37.248Z,931.7
2018-01-10T06:31:47.897Z,931.7
2018-01-10T06:32:56.528Z,931.7
2018-01-10T06:34:10.916Z,926.4
2018-01-10T06:35:18.600Z,931.7
2018-01-10T06:36:27.504Z,931.7
2018-01-10T06:37:35.871Z,931.7
2018-01-10T06:38:53.436Z,931.7
2018-01-10T06:40:02.320Z,931.8
2018-01-10T06:41:12.594Z,931.8
2018-01-10T06:42:27.666Z,931.7
2018-01-10T06:43:33.602Z,931.8
2018-01-10T06:44:46.157Z,931.8
2018-01-10T06:45:51.983Z,931.7
2018-01-10T06:47:01.240Z,931.8
2018-01-10T06:48:09.704Z,931.8
2018-01-10T06:49:20.291Z,931.7
2018-01-10T06:51:13.729Z,931.8
2018-01-10T06:52:21.908Z,931.8
2018-01-10T06:53:32.002Z,931.8
2018-01-10T06:54:41.688Z,931.9
2018-01-10T06:55:47.907Z,931.8
2018-01-10T06:56:55.248Z,931.9
2018-01-10T06:58:01.801Z,931.8
2018-01-10T06:59:09.208Z,931.9
2018-01-10T07:00:19.314Z,931.8
2018-01-10T07:01:30.598Z,931.8
2018-01-10T07:04:00.024Z,931.9
2018-01-10T07:05:07.765Z,931.8
2018-01-10T07:06:23.689Z,931.9
2018-01-10T07:07:37.621Z,931.9
2018-01-10T07:08:54.705Z,931.9
2018-01-10T07:10:09.275Z,931.9
2018-01-10T07:11:17.415Z,932
2018-01-10T07:12:28.041Z,931.9
2018-01-10T07:13:38.357Z,931.8
2018-01-10T07:14:45.975Z,931.9
2018-01-10T07:16:07.858Z,931.9
2018-01-10T07:17:16.465Z,932
2018-01-10T07:18:23.234Z,932
2018-01-10T07:19:42.110Z,932
2018-01-10T07:20:48.959Z,932
2018-01-10T07:21:52.374Z,932
2018-01-10T07:23:00.202Z,932.1
2018-01-10T07:24:04.607Z,932.1
2018-01-10T07:25:12.162Z,932.2
2018-01-10T07:26:18.386Z,932.1
2018-01-10T07:28:02.692Z,932.2
2018-01-10T07:29:08.897Z,932.2
2018-01-10T07:30:14.770Z,932.2
2018-01-10T07:31:22.647Z,932.2
2018-01-10T07:32:28.816Z,932.2
2018-01-10T07:33:36.820Z,932.2
2018-01-10T07:34:43.705Z,932.2
2018-01-10T07:35:51.461Z,932.2
2018-01-10T07:36:58.223Z,932.2
2018-01-10T07:38:03.037Z,932.1
2018-01-10T07:39:13.845Z,932.2
2018-01-10T07:40:19.990Z,932.2
2018-01-10T07:41:29.424Z,932.2
2018-01-10T07:42:35.395Z,932.2
2018-01-10T07:43:45.082Z,932.3
2018-01-10T07:45:00.998Z,932.2
2018-01-10T07:46:09.943Z,932.2
2018-01-10T07:47:20.517Z,932.2
2018-01-10T07:48:31.075Z,932.3
2018-01-10T07:49:37.497Z,932.3
2018-01-10T07:50:51.933Z,932.3
2018-01-10T07:52:01.616Z,932.3
2018-01-10T07:53:08.672Z,932.3
2018-01-10T07:54:19.014Z,932.3
2018-01-10T07:55:24.653Z,932.3
2018-01-10T07:56:41.334Z,932.3
2018-01-10T07:57:47.902Z,932.4
2018-01-10T07:58:58.429Z,932.3
2018-01-10T08:00:03.572Z,932.3
2018-01-10T08:01:07.842Z,932.3
2018-01-10T08:02:17.195Z,928.3
2018-01-10T08:03:24.899Z,932.4
2018-01-10T08:04:28.913Z,932.4
2018-01-10T08:05:33.390Z,932.5
2018-01-10T08:06:36.925Z,932.5
2018-01-10T08:07:41.089Z,932.5
2018-01-10T08:08:44.642Z,932.5
2018-01-10T08:09:48.276Z,932.5
2018-01-10T08:10:52.514Z,932.5
2018-01-10T08:11:55.935Z,932.5
2018-01-10T08:13:03.644Z,932.6
2018-01-10T08:14:07.124Z,932.5
2018-01-10T08:15:11.241Z,932.5
2018-01-10T08:16:14.591Z,932.4
2018-01-10T08:17:22.195Z,932.5
2018-01-10T08:18:27.841Z,932.6
2018-01-10T08:19:34.664Z,932.6
2018-01-10T08:20:39.928Z,932.6
2018-01-10T08:21:45.396Z,932.6
2018-01-10T08:22:51.293Z,932.5
2018-01-10T08:24:07.063Z,932.7
2018-01-10T08:25:14.609Z,932.6
2018-01-10T08:26:23.988Z,932.5
2018-01-10T08:27:31.376Z,932.6
2018-01-10T08:28:38.092Z,932.7
2018-01-10T08:29:47.113Z,932.7
2018-01-10T08:30:51.487Z,932.7
2018-01-10T08:31:57.148Z,932.4
2018-01-10T08:33:03.705Z,932.6
2018-01-10T08:34:11.108Z,932.7
2018-01-10T08:35:58.928Z,932.7
2018-01-10T08:37:07.217Z,932.6
2018-01-10T08:38:14.862Z,932.6
2018-01-10T08:39:21.977Z,932.6
2018-01-10T08:40:33.632Z,932.6
2018-01-10T08:41:41.206Z,932.6
2018-01-10T08:42:50.377Z,932.7
2018-01-10T08:43:58.567Z,932.7
2018-01-10T08:45:10.564Z,932.7
2018-01-10T08:46:21.036Z,932.7
2018-01-10T08:47:41.469Z,932.6
2018-01-10T08:48:50.011Z,932.6
2018-01-10T08:49:58.891Z,932.6
2018-01-10T08:51:09.102Z,932.7
2018-01-10T08:52:19.544Z,932.6
2018-01-10T08:53:28.723Z,932.6
2018-01-10T08:54:41.318Z,932.7
2018-01-10T08:55:49.126Z,932.7
2018-01-10T08:57:00.367Z,932.6
2018-01-10T08:58:12.550Z,932.7
2018-01-10T08:59:24.271Z,932.6
2018-01-10T09:00:34.179Z,932.6
2018-01-10T09:01:46.586Z,932.6
2018-01-10T09:02:58.198Z,932.6
2018-01-10T09:04:11.919Z,932.6
2018-01-10T09:05:21.053Z,932.7
2018-01-10T09:06:29.630Z,932.6
2018-01-10T09:07:39.694Z,932.7
2018-01-10T09:08:46.891Z,932.7
2018-01-10T09:09:54.034Z,932.6
2018-01-10T09:11:15.089Z,932.6
2018-01-10T09:12:24.559Z,932.6
2018-01-10T09:13:36.137Z,932.5
2018-01-10T09:14:43.335Z,932.6
2018-01-10T09:15:56.538Z,932.6
2018-01-10T09:17:12.554Z,932.6
2018-01-10T09:18:21.571Z,932.6
2018-01-10T09:19:33.568Z,932.5
2018-01-10T09:20:43.119Z,932.5
2018-01-10T09:21:52.174Z,932.5
2018-01-10T09:23:15.307Z,932.6
2018-01-10T09:24:23.682Z,932.5
2018-01-10T09:25:33.817Z,932.5
2018-01-10T09:26:48.031Z,932.6
2018-01-10T09:28:00.603Z,932.6
2018-01-10T09:29:18.076Z,932.5
2018-01-10T09:30:31.199Z,932.5
2018-01-10T09:31:43.824Z,932.5
2018-01-10T09:32:55.527Z,932.6
2018-01-10T09:34:03.975Z,932.5
2018-01-10T09:35:24.202Z,932.5
2018-01-10T09:36:34.025Z,932.5
2018-01-10T09:37:46.777Z,932.4
2018-01-10T09:38:56.629Z,932.5
2018-01-10T09:40:06.918Z,932.3
2018-01-10T09:41:18.081Z,932.4
2018-01-10T09:42:26.494Z,932.4
2018-01-10T09:43:39.783Z,932.4
2018-01-10T09:44:50.934Z,932.4
2018-01-10T09:46:00.998Z,932.4
2018-01-10T09:47:21.909Z,932.4
2018-01-10T09:48:32.643Z,932.4
2018-01-10T09:49:37.640Z,932.4
2018-01-10T09:50:41.070Z,932.4
2018-01-10T09:51:52.751Z,932.3
2018-01-10T09:53:02.461Z,932.4
2018-01-10T09:54:14.975Z,932.4
2018-01-10T09:55:24.329Z,932.4
2018-01-10T09:56:45.092Z,932.3
2018-01-10T09:57:55.406Z,932.3
2018-01-10T09:59:16.584Z,932.4
2018-01-10T10:00:26.013Z,932.3
2018-01-10T10:01:35.958Z,932.2
2018-01-10T10:02:44.665Z,932.2
2018-01-10T10:03:50.631Z,928.8
2018-01-10T10:04:59.836Z,932.2
2018-01-10T10:06:13.324Z,932.2
2018-01-10T10:07:22.421Z,932.2
2018-01-10T10:08:36.488Z,932.2
2018-01-10T10:09:46.870Z,932.2
2018-01-10T10:11:41.173Z,932.1
2018-01-10T10:13:02.483Z,932.1
2018-01-10T10:14:13.281Z,932.1
2018-01-10T10:15:26.325Z,932.1
2018-01-10T10:16:36.879Z,932.2
2018-01-10T10:17:43.722Z,932.1
2018-01-10T10:18:52.767Z,932.1
2018-01-10T10:20:04.654Z,932.1
2018-01-10T10:21:17.439Z,932
2018-01-10T10:22:27.549Z,932.1
2018-01-10T10:23:46.354Z,931.9
2018-01-10T10:24:54.583Z,932
2018-01-10T10:26:07.900Z,931.9
2018-01-10T10:27:20.582Z,931.9
2018-01-10T10:28:25.608Z,931.9
2018-01-10T10:29:30.691Z,931.8
2018-01-10T10:30:33.976Z,928.6
2018-01-10T10:31:37.344Z,928
2018-01-10T10:32:42.854Z,931.8
2018-01-10T10:33:46.284Z,931.8
2018-01-10T10:34:53.370Z,931.7
2018-01-10T10:35:58.719Z,931.7
2018-01-10T10:37:02.134Z,931.8
2018-01-10T10:38:09.518Z,931.7
2018-01-10T10:39:12.843Z,931.7
2018-01-10T10:40:16.905Z,931.6
2018-01-10T10:41:22.236Z,931.7
2018-01-10T10:42:25.611Z,931.7
2018-01-10T10:43:29.333Z,931.6
2018-01-10T10:44:33.663Z,931.6
2018-01-10T10:46:17.536Z,931.7
2018-01-10T10:47:22.695Z,931.7
2018-01-10T10:48:28.400Z,931.6
2018-01-10T10:49:34.242Z,931.7
2018-01-10T10:50:40.819Z,931.6
2018-01-10T10:51:48.396Z,931.5
2018-01-10T10:52:52.269Z,931.6
2018-01-10T10:53:56.452Z,931.6
2018-01-10T10:55:03.357Z,931.4
2018-01-10T10:56:09.428Z,931.5
2018-01-10T10:58:30.161Z,931.4
2018-01-10T10:59:38.947Z,931.4
2018-01-10T11:00:46.616Z,931.3
2018-01-10T11:02:00.574Z,931.4
2018-01-10T11:03:10.136Z,931.3
2018-01-10T11:04:15.991Z,931.3
2018-01-10T11:05:24.072Z,931.4
2018-01-10T11:06:34.150Z,931.3
2018-01-10T11:07:43.263Z,931.3
2018-01-10T11:08:51.510Z,931.3
2018-01-10T11:10:08.821Z,931.3
2018-01-10T11:11:15.294Z,931.2
2018-01-10T11:12:30.160Z,931.2
2018-01-10T11:13:38.396Z,931.2
2018-01-10T11:14:48.419Z,931.2
2018-01-10T11:15:58.475Z,931.1
2018-01-10T11:17:07.884Z,931.1
2018-01-10T11:18:18.271Z,931.1
2018-01-10T11:19:28.433Z,931
2018-01-10T11:20:36.981Z,931
2018-01-10T11:22:28.015Z,931
2018-01-10T11:23:37.917Z,931
2018-01-10T11:24:47.998Z,930.9
2018-01-10T11:25:58.940Z,930.8
2018-01-10T11:27:09.054Z,930.9
2018-01-10T11:28:20.774Z,930.8
2018-01-10T11:29:30.323Z,930.7
2018-01-10T11:30:37.533Z,930.7
2018-01-10T11:31:50.348Z,930.8
2018-01-10T11:33:01.137Z,930.7
2018-01-10T11:34:16.131Z,930.7
2018-01-10T11:35:26.578Z,930.7
2018-01-10T11:36:34.373Z,930.6
2018-01-10T11:37:45.716Z,930.5
2018-01-10T11:38:55.492Z,930.6
2018-01-10T11:40:05.436Z,930.5
2018-01-10T11:41:15.589Z,930.6
2018-01-10T11:42:24.467Z,930.5
2018-01-10T11:43:34.873Z,930.6
2018-01-10T11:44:47.412Z,930.6
2018-01-10T11:46:41.108Z,930.6
2018-01-10T11:47:55.273Z,930.5
2018-01-10T11:49:04.116Z,930.5
2018-01-10T11:50:14.216Z,930.5
2018-01-10T11:51:23.724Z,930.4
2018-01-10T11:52:33.422Z,930.4
2018-01-10T11:53:44.178Z,927.3
2018-01-10T11:54:54.830Z,930.4
2018-01-10T11:56:11.185Z,930.4
2018-01-10T11:57:20.336Z,930.4
2018-01-10T11:58:33.276Z,930.4
2018-01-10T11:59:40.288Z,930.4
2018-01-10T12:00:51.272Z,930.4
2018-01-10T12:02:01.434Z,930.3
2018-01-10T12:03:10.566Z,930.4
2018-01-10T12:04:18.326Z,930.5
2018-01-10T12:05:27.211Z,930.3
2018-01-10T12:06:36.685Z,930.3
2018-01-10T12:07:40.027Z,930.4
2018-01-10T12:08:43.553Z,930.3
2018-01-10T12:09:52.182Z,930.3
2018-01-10T12:10:56.364Z,930.4
2018-01-10T12:12:01.206Z,930.3
2018-01-10T12:13:04.570Z,930.4
2018-01-10T12:14:09.113Z,930.3
2018-01-10T12:15:15.378Z,930.4
2018-01-10T12:16:18.722Z,930.3
2018-01-10T12:17:22.881Z,930.2
2018-01-10T12:18:27.891Z,930.2
2018-01-10T12:19:32.133Z,930.2
2018-01-10T12:20:40.037Z,930.3
2018-01-10T12:21:43.976Z,930.1
2018-01-10T12:22:48.104Z,930.2
2018-01-10T12:23:53.353Z,930.1
2018-01-10T12:24:57.081Z,930.1
2018-01-10T12:26:00.551Z,930.1
2018-01-10T12:27:05.555Z,930.1
2018-01-10T12:28:08.977Z,930
2018-01-10T12:29:12.708Z,930
2018-01-10T12:30:17.280Z,930.1
2018-01-10T12:31:26.586Z,930
2018-01-10T12:32:29.996Z,930
2018-01-10T12:33:33.541Z,926.4
2018-01-10T12:34:37.657Z,930
2018-01-10T12:35:41.516Z,930.1
2018-01-10T12:36:45.075Z,930
2018-01-10T12:37:48.450Z,929.9
2018-01-10T12:38:51.994Z,930
2018-01-10T12:39:56.291Z,929.9
2018-01-10T12:41:00.447Z,929.9
2018-01-10T12:42:07.468Z,929.9
2018-01-10T12:43:10.869Z,930
2018-01-10T12:44:14.128Z,929.9
2018-01-10T12:45:17.494Z,926.4
2018-01-10T12:46:20.798Z,929.9
2018-01-10T12:47:24.255Z,930
2018-01-10T12:48:27.621Z,929.9
2018-01-10T12:49:30.975Z,929.9
2018-01-10T12:50:34.315Z,929.9
2018-01-10T12:51:37.911Z,930
2018-01-10T12:52:44.829Z,930
2018-01-10T12:53:48.193Z,929.9
2018-01-10T12:54:51.433Z,926.4
2018-01-10T12:55:55.579Z,929.9
2018-01-10T12:56:59.418Z,929.9
2018-01-10T12:58:05.406Z,929.9
2018-01-10T12:59:09.490Z,929.9
2018-01-10T13:00:12.912Z,929.9
2018-01-10T13:01:17.467Z,929.9
2018-01-10T13:02:20.928Z,929.9
2018-01-10T13:04:00.450Z,929.9
2018-01-10T13:05:04.171Z,929.8
2018-01-10T13:06:10.600Z,929.8
2018-01-10T13:07:14.594Z,930
2018-01-10T13:08:18.636Z,929.9
2018-01-10T13:09:22.914Z,929.9
2018-01-10T13:10:26.364Z,930
2018-01-10T13:11:29.700Z,929.9
2018-01-10T13:12:33.079Z,929.9
2018-01-10T13:13:36.297Z,929.9
2018-01-10T13:14:44.635Z,929.8
2018-01-10T13:15:48.763Z,929.9
2018-01-10T13:16:52.252Z,929.9
2018-01-10T13:17:55.992Z,929.9
2018-01-10T13:19:00.130Z,929.8
2018-01-10T13:20:03.783Z,929.8
2018-01-10T13:21:07.273Z,929.9
2018-01-10T13:22:10.929Z,929.8
2018-01-10T13:23:14.381Z,929.9
2018-01-10T13:24:17.968Z,926.4
2018-01-10T13:25:25.382Z,929.8
2018-01-10T13:26:28.745Z,929.8
2018-01-10T13:27:33.434Z,929.8
2018-01-10T13:28:36.944Z,929.9
2018-01-10T13:29:40.966Z,929.8
2018-01-10T13:30:44.321Z,929.7
2018-01-10T13:31:50.006Z,929.7
2018-01-10T13:32:53.377Z,929.8
2018-01-10T13:33:56.900Z,929.8
2018-01-10T13:35:00.146Z,929.8
2018-01-10T13:36:07.274Z,929.8
2018-01-10T13:37:12.753Z,929.8
2018-01-10T13:38:16.267Z,929.8
2018-01-10T13:39:21.751Z,929.8
2018-01-10T13:40:27.170Z,929.8
2018-01-10T13:41:30.600Z,929.9
2018-01-10T13:42:34.099Z,929.8
2018-01-10T13:43:37.621Z,929.9
2018-01-10T13:44:41.610Z,929.8
2018-01-10T13:45:44.819Z,929.8
2018-01-10T13:46:52.346Z,929.8
2018-01-10T13:47:56.674Z,929.8
2018-01-10T13:49:06.186Z,929.8
2018-01-10T13:50:14.070Z,929.8
2018-01-10T13:51:23.121Z,929.8
2018-01-10T13:52:29.433Z,929.9
2018-01-10T13:53:36.204Z,929.8
2018-01-10T13:54:46.676Z,929.8
2018-01-10T13:55:55.690Z,929.8
2018-01-10T13:57:03.674Z,929.9
2018-01-10T13:58:17.103Z,929.9
2018-01-10T13:59:21.715Z,929.9
2018-01-10T14:00:24.793Z,929.9
2018-01-10T14:01:34.539Z,929.8
2018-01-10T14:02:38.398Z,929.8
2018-01-10T14:03:43.096Z,929.8
2018-01-10T14:04:52.006Z,929.9
2018-01-10T14:05:58.424Z,926.4
2018-01-10T14:07:03.347Z,929.9
2018-01-10T14:08:12.859Z,929.9
2018-01-10T14:09:27.027Z,929.8
2018-01-10T14:10:33.316Z,929.8
2018-01-10T14:11:39.586Z,929.9
2018-01-10T14:12:48.643Z,929.8
2018-01-10T14:13:58.422Z,929.9
2018-01-10T14:15:06.388Z,929.9
2018-01-10T14:16:14.067Z,929.9
2018-01-10T14:17:18.225Z,929.9
2018-01-10T14:18:25.941Z,929.9
2018-01-10T14:19:31.178Z,930
2018-01-10T14:20:45.568Z,929.8
2018-01-10T14:21:52.773Z,929.9
2018-01-10T14:23:01.927Z,929.9
2018-01-10T14:24:07.659Z,929.9
2018-01-10T14:25:12.236Z,929.8
2018-01-10T14:26:15.719Z,929.8
2018-01-10T14:27:19.685Z,929.9
2018-01-10T14:28:23.156Z,929.8
2018-01-10T14:29:26.585Z,929.9
2018-01-10T14:30:30.119Z,929.9
2018-01-10T14:31:38.816Z,929.9
2018-01-10T14:32:42.163Z,929.9
2018-01-10T14:33:46.687Z,930
2018-01-10T14:34:50.800Z,929.9
2018-01-10T14:35:54.220Z,929.9
2018-01-10T14:36:58.290Z,930
2018-01-10T14:38:03.031Z,930
2018-01-10T14:39:06.578Z,929.9
2018-01-10T14:40:10.142Z,930
2018-01-10T14:41:15.644Z,929.9
2018-01-10T14:42:22.616Z,929.9
2018-01-10T14:43:26.051Z,930
2018-01-10T14:44:29.427Z,929.9